createdAt,value
2023-03-05T00:00:38.682Z,21.14
2023-03-05T00:01:38.690Z,21.14
2023-03-05T00:02:38.734Z,21.09
2023-03-05T00:19:16.788Z,21.06
2023-03-05T00:20:17.150Z,21.06
2023-03-05T00:21:16.596Z,21.05
2023-03-05T00:22:16.566Z,21.00
2023-03-05T00:23:16.425Z,21.02
2023-03-05T00:24:16.417Z,20.99
2023-03-05T00:25:16.375Z,20.97
2023-03-05T00:26:16.361Z,21.02
2023-03-05T00:27:16.429Z,20.99
2023-03-05T00:28:16.391Z,20.96
2023-03-05T00:29:16.415Z,21.00
2023-03-05T00:30:16.455Z,20.91
2023-03-05T00:31:16.377Z,20.96
2023-03-05T00:32:16.426Z,21.00
2023-03-05T00:33:16.281Z,20.93
2023-03-05T00:34:16.310Z,20.94
2023-03-05T00:35:17.347Z,20.92
2023-03-05T00:36:16.360Z,20.94
2023-03-05T00:37:16.376Z,20.92
2023-03-05T00:38:17.345Z,20.90
2023-03-05T00:39:16.428Z,20.91
2023-03-05T00:40:16.383Z,20.88
2023-03-05T00:41:16.311Z,20.94
2023-03-05T00:42:16.263Z,20.94
2023-03-05T00:43:16.374Z,20.91
2023-03-05T00:44:16.209Z,20.94
2023-03-05T00:45:16.323Z,20.94
2023-03-05T00:46:16.244Z,20.91
2023-03-05T00:47:16.258Z,20.94
2023-03-05T00:48:16.256Z,20.88
2023-03-05T00:49:16.263Z,20.88
2023-03-05T00:50:16.162Z,20.91
2023-03-05T00:51:16.201Z,20.93
2023-03-05T00:52:16.212Z,20.93
2023-03-05T00:53:16.138Z,20.85
2023-03-05T00:54:16.302Z,20.90
2023-03-05T00:55:16.196Z,20.87
2023-03-05T00:56:16.181Z,20.88
2023-03-05T00:57:16.223Z,20.90
2023-03-05T00:58:16.093Z,20.88
2023-03-05T00:59:16.217Z,20.87
2023-03-05T01:00:16.168Z,20.90
2023-03-05T01:01:16.214Z,20.90
2023-03-05T01:02:16.086Z,20.89
2023-03-05T01:03:17.110Z,20.91
2023-03-05T01:04:16.269Z,20.86
2023-03-05T01:05:16.208Z,20.88
2023-03-05T01:06:16.068Z,20.89
2023-03-05T01:07:16.113Z,20.83
2023-03-05T01:08:16.023Z,20.88
2023-03-05T01:09:16.092Z,20.85
2023-03-05T01:10:16.023Z,20.85
2023-03-05T01:11:17.059Z,20.85
2023-03-05T01:12:16.021Z,20.87
2023-03-05T01:13:16.001Z,20.86
2023-03-05T01:14:16.300Z,20.80
2023-03-05T01:15:15.988Z,20.86
2023-03-05T01:16:16.187Z,20.82
2023-03-05T01:17:15.960Z,20.85
2023-03-05T01:18:17.028Z,20.89
2023-03-05T01:19:16.015Z,20.85
2023-03-05T01:20:15.944Z,20.81
2023-03-05T01:22:15.905Z,20.82
2023-03-05T01:23:16.018Z,20.86
2023-03-05T01:24:15.946Z,20.80
2023-03-05T01:25:17.016Z,20.79
2023-03-05T01:26:17.074Z,20.79
2023-03-05T01:27:16.005Z,20.80
2023-03-05T01:28:15.921Z,20.83
2023-03-05T01:29:16.039Z,20.80
2023-03-05T01:30:15.949Z,20.77
2023-03-05T01:31:16.103Z,20.82
2023-03-05T01:32:15.987Z,20.77
2023-03-05T03:09:26.426Z,20.52
2023-03-05T03:10:26.662Z,20.57
2023-03-05T03:11:26.118Z,20.51
2023-03-05T03:13:26.264Z,20.52
2023-03-05T03:14:26.040Z,20.52
2023-03-05T03:15:26.115Z,20.52
2023-03-05T03:16:26.177Z,20.52
2023-03-05T03:17:26.193Z,20.54
2023-03-05T03:18:26.208Z,20.55
2023-03-05T03:19:26.113Z,20.50
2023-03-05T03:20:26.200Z,20.56
2023-03-05T03:21:33.923Z,20.49
2023-03-05T05:04:36.379Z,20.34
2023-03-05T05:05:36.003Z,20.31
2023-03-05T05:06:36.314Z,20.27
2023-03-05T05:07:36.358Z,20.25
2023-03-05T05:08:35.956Z,20.25
2023-03-05T05:09:35.909Z,20.23
2023-03-05T05:10:35.935Z,20.28
2023-03-05T05:11:36.051Z,20.33
2023-03-05T05:12:36.048Z,20.25
2023-03-05T05:13:36.095Z,20.27
2023-03-05T05:41:30.064Z,20.46
2023-03-05T05:42:30.265Z,20.46
2023-03-05T05:43:30.088Z,20.41
2023-03-05T05:44:30.037Z,20.44
2023-03-05T05:45:30.280Z,20.46
2023-03-05T05:46:30.116Z,20.44
2023-03-05T06:48:07.944Z,20.31
2023-03-05T06:49:07.852Z,20.33
2023-03-05T06:50:07.814Z,20.29
2023-03-05T06:51:07.835Z,20.30
2023-03-05T06:52:07.874Z,20.34
2023-03-05T06:53:07.945Z,20.34
2023-03-05T06:54:07.922Z,20.34
2023-03-05T06:55:07.997Z,20.32
2023-03-05T06:56:08.009Z,20.29
2023-03-05T06:57:08.121Z,20.29
2023-03-05T06:58:08.595Z,20.33
2023-03-05T06:59:08.016Z,20.34
2023-03-05T07:00:08.124Z,20.32
2023-03-05T07:01:08.129Z,20.29
2023-03-05T07:02:08.090Z,20.30
2023-03-05T07:03:08.119Z,20.29
2023-03-05T07:04:08.092Z,20.34
2023-03-05T07:05:08.163Z,20.27
2023-03-05T07:06:08.123Z,20.29
2023-03-05T07:07:08.160Z,20.33
2023-03-05T07:08:08.186Z,20.24
2023-03-05T07:09:08.210Z,20.28
2023-03-05T07:10:08.184Z,20.30
2023-03-05T07:11:08.262Z,20.27
2023-03-05T07:12:08.214Z,20.30
2023-03-05T07:13:08.222Z,20.30
2023-03-05T07:14:08.266Z,20.30
2023-03-05T07:15:08.273Z,20.29
2023-03-05T07:16:08.312Z,20.36
2023-03-05T07:20:34.160Z,20.30
2023-03-05T07:21:33.998Z,20.36
2023-03-05T07:22:34.134Z,20.30
2023-03-05T07:23:34.258Z,20.30
2023-03-05T07:24:34.055Z,20.39
2023-03-05T07:25:34.078Z,20.33
2023-03-05T07:26:34.115Z,20.33
2023-03-05T07:27:34.102Z,20.36
2023-03-05T07:55:12.722Z,20.21
2023-03-05T07:56:12.328Z,20.27
2023-03-05T07:57:12.307Z,20.27
2023-03-05T07:58:12.369Z,20.24
2023-03-05T07:59:12.347Z,20.29
2023-03-05T08:00:12.501Z,20.23
2023-03-05T08:01:13.429Z,20.17
2023-03-05T08:02:12.590Z,20.24
2023-03-05T08:07:29.717Z,20.18
2023-03-05T08:08:29.872Z,20.20
2023-03-05T08:09:29.639Z,20.22
2023-03-05T08:10:29.706Z,20.12
2023-03-05T08:11:29.950Z,20.05
2023-03-05T08:12:29.697Z,19.96
2023-03-05T08:13:29.765Z,19.94
2023-03-05T08:14:29.778Z,20.00
2023-03-05T08:15:29.892Z,19.99
2023-03-05T08:16:29.817Z,19.99
2023-03-05T08:17:29.831Z,19.94
2023-03-05T08:18:29.838Z,19.93
2023-03-05T08:19:29.841Z,19.85
2023-03-05T08:20:29.850Z,19.90
2023-03-05T08:21:29.923Z,19.90
2023-03-05T08:22:29.842Z,19.87
2023-03-05T08:23:29.864Z,19.74
2023-03-05T08:24:29.945Z,19.82
2023-03-05T08:26:49.015Z,19.82
2023-03-05T08:29:48.825Z,19.79
2023-03-05T08:31:48.782Z,19.73
2023-03-05T08:37:48.727Z,19.58
2023-03-05T08:38:48.756Z,19.61
2023-03-05T08:39:48.770Z,19.56
2023-03-05T08:41:48.710Z,19.51
2023-03-05T08:42:48.685Z,19.61
2023-03-05T08:43:48.681Z,19.58
2023-03-05T08:44:48.579Z,19.58
2023-03-05T08:45:48.664Z,19.51
2023-03-05T08:46:48.714Z,19.57
2023-03-05T08:47:48.590Z,19.47
2023-03-05T08:48:48.657Z,19.43
2023-03-05T08:49:48.591Z,19.38
2023-03-05T08:50:48.602Z,19.39
2023-03-05T08:51:48.783Z,19.48
2023-03-05T08:52:48.531Z,19.51
2023-03-05T08:53:48.557Z,19.49
2023-03-05T08:54:48.539Z,19.45
2023-03-05T08:55:48.545Z,19.45
2023-03-05T08:56:48.561Z,19.45
2023-03-05T08:57:48.582Z,19.45
2023-03-05T08:58:48.577Z,19.42
2023-03-05T08:59:48.657Z,19.36
2023-03-05T09:00:48.689Z,19.39
2023-03-05T09:01:48.740Z,19.37
2023-03-05T09:02:49.037Z,19.37
2023-03-05T09:03:48.875Z,19.36
2023-03-05T09:04:48.953Z,19.30
2023-03-05T09:05:48.939Z,19.39
2023-03-05T09:06:49.048Z,19.36
2023-03-05T09:07:49.122Z,19.34
2023-03-05T09:08:49.198Z,19.36
2023-03-05T09:09:49.270Z,19.33
2023-03-05T09:10:49.280Z,19.30
2023-03-05T09:11:49.336Z,19.30
2023-03-05T09:12:49.362Z,19.25
2023-03-05T09:13:49.439Z,19.26
2023-03-05T09:14:49.520Z,19.19
2023-03-05T09:15:49.638Z,19.33
2023-03-05T09:16:49.929Z,19.33
2023-03-05T09:17:49.764Z,19.29
2023-03-05T09:18:49.754Z,19.29
2023-03-05T09:19:49.882Z,19.31
2023-03-05T09:20:49.913Z,19.21
2023-03-05T09:21:49.899Z,19.26
2023-03-05T09:23:50.033Z,19.21
2023-03-05T09:35:09.530Z,19.18
2023-03-05T09:36:10.006Z,19.16
2023-03-05T09:37:09.413Z,19.13
2023-03-05T09:38:09.424Z,20.03
2023-03-05T09:39:09.536Z,19.68
2023-03-05T09:40:09.544Z,19.47
2023-03-05T09:41:09.746Z,19.29
2023-03-05T09:42:10.263Z,19.29
2023-03-05T09:43:09.777Z,19.21
2023-03-05T09:44:09.790Z,19.12
2023-03-05T09:45:09.925Z,19.15
2023-03-05T09:46:09.989Z,19.12
2023-03-05T09:47:09.946Z,19.07
2023-03-05T09:48:10.066Z,19.09
2023-03-05T09:49:10.118Z,19.06
2023-03-05T09:50:10.175Z,19.06
2023-03-05T09:51:10.254Z,19.10
2023-03-05T09:52:10.267Z,19.04
2023-03-05T09:53:10.345Z,19.03
2023-03-05T09:54:10.382Z,19.02
2023-03-05T09:55:10.429Z,19.00
2023-03-05T09:56:10.569Z,18.97
2023-03-05T09:57:10.583Z,18.98
2023-03-05T09:58:10.617Z,19.03
2023-03-05T09:59:10.755Z,19.03
2023-03-05T10:00:10.793Z,19.02
2023-03-05T10:01:10.843Z,19.00
2023-03-05T10:02:10.880Z,19.02
2023-03-05T10:47:47.410Z,19.29
2023-03-05T10:48:46.840Z,19.29
2023-03-05T10:49:46.851Z,19.27
2023-03-05T10:50:46.621Z,19.32
2023-03-05T10:51:46.558Z,19.40
2023-03-05T10:52:46.743Z,19.40
2023-03-05T10:53:46.694Z,19.38
2023-03-05T10:54:46.649Z,19.36
2023-03-05T10:55:46.722Z,19.34
2023-03-05T10:56:46.711Z,19.24
2023-03-05T10:57:46.788Z,19.12
2023-03-05T10:58:46.905Z,19.02
2023-03-05T10:59:46.944Z,19.00
2023-03-05T11:00:46.974Z,19.10
2023-03-05T11:01:47.055Z,19.20
2023-03-05T11:02:47.139Z,19.29
2023-03-05T11:03:47.151Z,19.40
2023-03-05T11:04:47.141Z,19.41
2023-03-05T11:05:47.221Z,19.44
2023-03-05T11:06:47.232Z,19.46
2023-03-05T11:07:47.341Z,19.41
2023-03-05T11:08:47.370Z,19.43
2023-03-05T11:09:47.421Z,19.47
2023-03-05T11:10:47.484Z,19.47
2023-03-05T11:11:47.641Z,19.49
2023-03-05T11:12:47.605Z,19.51
2023-03-05T11:13:47.687Z,19.47
2023-03-05T11:14:47.747Z,19.44
2023-03-05T11:15:47.783Z,19.42
2023-03-05T11:16:47.773Z,19.35
2023-03-05T11:17:48.004Z,19.35
2023-03-05T11:18:47.989Z,19.37
2023-03-05T11:19:47.938Z,19.43
2023-03-05T11:20:47.999Z,19.38
2023-03-05T11:21:48.107Z,19.34
2023-03-05T11:22:48.095Z,19.26
2023-03-05T11:23:49.201Z,19.28
2023-03-05T11:24:48.240Z,19.29
2023-03-05T11:25:48.211Z,19.29
2023-03-05T11:26:48.329Z,19.34
2023-03-05T11:27:50.221Z,19.37
2023-03-05T11:28:48.359Z,19.31
2023-03-05T11:29:48.368Z,19.19
2023-03-05T11:30:48.439Z,19.31
2023-03-05T11:31:48.362Z,19.34
2023-03-05T11:36:00.919Z,19.26
2023-03-05T11:37:01.799Z,19.27
2023-03-05T11:38:01.482Z,19.27
2023-03-05T11:39:01.724Z,19.31
2023-03-05T11:40:00.812Z,19.27
2023-03-05T11:41:00.625Z,19.26
2023-03-05T11:42:00.744Z,19.26
2023-03-05T11:43:00.815Z,19.31
2023-03-05T11:44:00.900Z,19.27
2023-03-05T11:45:00.935Z,19.20
2023-03-05T11:47:19.805Z,19.20
2023-03-05T11:48:19.842Z,19.09
2023-03-05T11:49:19.754Z,19.09
2023-03-05T11:50:19.662Z,19.09
2023-03-05T11:51:19.706Z,19.05
2023-03-05T11:52:19.772Z,18.90
2023-03-05T11:53:19.643Z,18.89
2023-03-05T11:54:19.668Z,18.89
2023-03-05T11:55:19.620Z,18.80
2023-03-05T11:56:19.669Z,18.85
2023-03-05T11:57:19.626Z,18.77
2023-03-05T11:58:19.711Z,18.79
2023-03-05T11:59:19.740Z,18.83
2023-03-05T12:00:19.759Z,18.85
2023-03-05T12:01:19.839Z,18.77
2023-03-05T12:02:19.938Z,18.79
2023-03-05T12:03:20.078Z,18.85
2023-03-05T12:04:20.039Z,18.79
2023-03-05T12:05:20.054Z,18.86
2023-03-05T12:06:20.094Z,18.77
2023-03-05T12:07:20.162Z,18.76
2023-03-05T12:08:20.266Z,18.83
2023-03-05T12:09:20.285Z,18.74
2023-03-05T12:10:20.357Z,18.88
2023-03-05T12:11:20.493Z,18.71
2023-03-05T12:12:20.474Z,18.79
2023-03-05T12:13:20.489Z,18.82
2023-03-05T12:14:20.616Z,18.79
2023-03-05T12:15:20.637Z,18.80
2023-03-05T13:08:24.466Z,19.30
2023-03-05T13:09:24.368Z,19.26
2023-03-05T13:10:24.285Z,19.24
2023-03-05T13:11:24.356Z,19.21
2023-03-05T13:12:24.092Z,19.32
2023-03-05T13:13:24.098Z,19.19
2023-03-05T13:14:24.258Z,19.15
2023-03-05T13:15:24.145Z,19.07
2023-03-05T13:16:24.502Z,19.20
2023-03-05T13:17:24.166Z,19.22
2023-03-05T13:18:24.313Z,19.10
2023-03-05T13:19:24.390Z,19.16
2023-03-05T13:20:24.511Z,19.24
2023-03-05T13:21:25.550Z,19.30
2023-03-05T13:22:24.554Z,19.29
2023-03-05T13:23:24.534Z,19.31
2023-03-05T13:24:24.650Z,19.36
2023-03-05T13:25:24.729Z,19.33
2023-03-05T13:26:24.837Z,19.30
2023-03-05T13:27:24.752Z,19.24
2023-03-05T13:28:25.079Z,19.31
2023-03-05T13:29:24.883Z,19.31
2023-03-05T13:30:25.094Z,19.27
2023-03-05T13:31:26.146Z,19.33
2023-03-05T13:32:25.117Z,19.35
2023-03-05T13:33:25.154Z,19.31
2023-03-05T13:34:26.517Z,19.24
2023-03-05T13:35:25.183Z,19.35
2023-03-05T13:37:25.203Z,19.35
2023-03-05T13:39:25.312Z,19.39
2023-03-05T20:40:29.533Z,19.82
2023-03-05T20:41:29.213Z,19.76
2023-03-05T20:42:29.289Z,19.78
2023-03-05T20:43:29.200Z,19.75
2023-03-05T20:44:29.198Z,19.75
2023-03-05T20:45:29.175Z,19.77
2023-03-05T20:47:48.536Z,19.76
2023-03-05T20:48:48.563Z,19.72
2023-03-05T20:49:48.373Z,19.72
2023-03-05T20:50:49.203Z,19.73
2023-03-05T20:51:49.130Z,19.72
2023-03-05T20:52:48.085Z,19.72
2023-03-05T20:53:48.049Z,19.69
2023-03-05T20:54:48.124Z,19.69
2023-03-05T20:55:48.148Z,19.69
2023-03-05T20:56:48.118Z,19.63
2023-03-05T20:57:48.062Z,19.65
2023-03-05T20:58:48.255Z,19.64
2023-03-05T20:59:48.092Z,19.64
2023-03-05T21:00:48.098Z,19.63
2023-03-05T21:01:48.070Z,19.66
2023-03-05T21:02:47.996Z,19.68
2023-03-05T21:03:48.031Z,19.68
2023-03-05T21:04:48.041Z,19.62
2023-03-05T21:05:47.995Z,19.62
2023-03-05T21:06:48.017Z,19.60
2023-03-05T21:07:48.035Z,19.68
2023-03-05T21:08:47.896Z,19.65
2023-03-05T21:09:48.007Z,19.63
2023-03-05T21:10:47.874Z,19.63
2023-03-05T21:11:48.016Z,19.66
2023-03-05T21:12:49.093Z,19.63
2023-03-05T21:14:47.910Z,19.62
2023-03-05T21:15:47.902Z,19.62
2023-03-05T21:28:48.864Z,19.63
2023-03-05T22:12:44.446Z,19.72
2023-03-05T22:13:44.626Z,19.68
2023-03-05T22:21:44.347Z,19.71
2023-03-05T22:22:44.265Z,19.71
2023-03-05T22:23:44.376Z,19.69
2023-03-05T22:24:44.230Z,19.68
2023-03-05T22:25:44.325Z,19.69
2023-03-05T22:26:44.196Z,19.63
2023-03-05T22:27:44.233Z,19.65
2023-03-05T22:28:44.127Z,19.68
2023-03-05T22:29:44.282Z,19.69
2023-03-05T22:32:03.105Z,19.74
2023-03-05T22:38:08.756Z,19.65
2023-03-05T22:39:08.583Z,19.68
2023-03-05T22:40:09.606Z,19.65
2023-03-05T22:41:08.425Z,19.68
2023-03-05T22:42:09.537Z,19.66
2023-03-05T22:43:08.459Z,19.62
2023-03-05T22:44:08.451Z,19.65
2023-03-05T22:45:08.470Z,19.68
2023-03-05T22:46:08.563Z,19.66
2023-03-05T22:47:08.563Z,19.60
2023-03-05T22:48:08.661Z,19.62
2023-03-05T22:49:08.493Z,19.61
2023-03-05T22:50:08.544Z,19.62
2023-03-05T22:51:08.548Z,19.65
2023-03-05T22:52:08.455Z,19.60
2023-03-05T22:53:08.539Z,19.62
2023-03-05T22:54:08.498Z,19.54
2023-03-05T22:55:09.499Z,19.56
2023-03-05T22:56:08.555Z,19.54
2023-03-05T22:57:09.537Z,19.57
2023-03-05T22:58:09.509Z,19.54
2023-03-05T22:59:08.527Z,19.62
2023-03-05T23:00:08.575Z,19.49
2023-03-05T23:01:08.547Z,19.54
2023-03-05T23:02:08.575Z,19.54
2023-03-05T23:13:08.405Z,19.53
2023-03-05T23:14:08.488Z,19.51
2023-03-05T23:15:08.550Z,19.48
2023-03-05T23:16:08.520Z,19.54
2023-03-05T23:17:08.487Z,19.51
2023-03-05T23:18:08.476Z,19.48
